Time,TemperatureF,DewpointF,PressureIn,WindDirection,WindDirectionDegrees,WindSpeedMPH,WindSpeedGustMPH,Humidity,HourlyPrecipIn,Conditions,Clouds,dailyrainin,SoftwareType,DateUTC
2017-05-27 00:00:00,55.2,53.2,29.86,SSE,158,0.0,0.0,93,0.00,,FEW250,0.00,VWS V15.00,2017-05-27 05:00:00,
2017-05-27 00:05:00,55.0,53.0,29.86,SSE,158,0.0,0.0,93,0.00,,FEW250,0.00,VWS V15.00,2017-05-27 05:05:00,
2017-05-27 00:10:00,55.0,53.0,29.86,SSE,158,0.0,0.0,93,0.00,,FEW250,0.00,VWS V15.00,2017-05-27 05:10:00,
2017-05-27 00:15:00,54.8,53.1,29.86,SSE,158,0.0,0.0,94,0.00,,FEW250,0.00,VWS V15.00,2017-05-27 05:15:00,
2017-05-27 00:20:00,54.6,52.9,29.86,SSE,158,0.0,0.0,94,0.00,,FEW250,0.00,VWS V15.00,2017-05-27 05:20:00,
2017-05-27 00:25:00,54.5,52.8,29.86,SSE,158,0.0,0.0,94,0.00,,FEW250,0.00,VWS V15.00,2017-05-27 05:25:00,
2017-05-27 00:30:00,54.3,52.6,29.86,SSE,158,0.0,0.0,94,0.00,,FEW250,0.00,VWS V15.00,2017-05-27 05:30:00,
2017-05-27 00:35:00,54.2,52.5,29.87,SSE,158,0.0,0.0,94,0.00,,,0.00,VWS V15.00,2017-05-27 05:35:00,
2017-05-27 00:40:00,54.1,52.4,29.86,SSE,158,0.0,0.0,94,0.00,,,0.00,VWS V15.00,2017-05-27 05:40:00,
2017-05-27 00:45:00,54.0,52.6,29.86,SSE,158,0.0,0.0,95,0.00,,,0.00,VWS V15.00,2017-05-27 05:45:00,
2017-05-27 00:50:00,54.0,52.6,29.86,SSE,158,0.0,0.0,95,0.00,,,0.00,VWS V15.00,2017-05-27 05:50:00,
2017-05-27 00:55:00,54.0,52.6,29.86,SSE,158,0.0,2.0,95,0.00,,,0.00,VWS V15.00,2017-05-27 05:55:00,
2017-05-27 01:00:00,53.9,52.5,29.86,SSE,158,0.0,1.0,95,0.00,,,0.00,VWS V15.00,2017-05-27 06:00:00,
2017-05-27 01:05:00,54.0,52.6,29.86,SSE,158,3.0,6.0,95,0.00,,,0.00,VWS V15.00,2017-05-27 06:05:00,
2017-05-27 01:10:00,53.9,52.5,29.86,SSE,158,1.0,2.0,95,0.00,,,0.00,VWS V15.00,2017-05-27 06:10:00,
2017-05-27 01:15:00,53.7,52.3,29.86,SSE,158,1.0,5.0,95,0.00,,,0.00,VWS V15.00,2017-05-27 06:15:00,
2017-05-27 01:20:00,53.7,52.3,29.86,SSE,158,2.0,3.0,95,0.00,,,0.00,VWS V15.00,2017-05-27 06:20:00,
2017-05-27 01:25:00,53.7,52.6,29.86,SSE,158,3.0,5.0,96,0.00,,,0.00,VWS V15.00,2017-05-27 06:25:00,
2017-05-27 01:30:00,53.7,52.6,29.86,SSE,158,2.0,5.0,96,0.00,,,0.00,VWS V15.00,2017-05-27 06:30:00,
2017-05-27 01:35:00,53.7,52.6,29.86,SSE,158,5.0,5.0,96,0.00,,,0.00,VWS V15.00,2017-05-27 06:35:00,
2017-05-27 01:40:00,53.7,52.6,29.86,SSE,162,2.0,2.0,96,0.00,,,0.00,VWS V15.00,2017-05-27 06:40:00,
2017-05-27 01:45:00,53.7,52.6,29.86,SSE,165,4.0,5.0,96,0.00,,,0.00,VWS V15.00,2017-05-27 06:45:00,
2017-05-27 01:50:00,53.6,52.5,29.86,SSE,165,1.0,4.0,96,0.00,,,0.00,VWS V15.00,2017-05-27 06:50:00,
2017-05-27 01:55:00,53.6,52.5,29.85,SSE,165,0.0,5.0,96,0.00,,,0.00,VWS V15.00,2017-05-27 06:55:00,
2017-05-27 02:00:00,53.6,52.5,29.85,South,171,7.0,7.0,96,0.00,,,0.00,VWS V15.00,2017-05-27 07:00:00,
2017-05-27 02:05:00,53.6,52.5,29.85,South,174,2.0,7.0,96,0.00,,,0.00,VWS V15.00,2017-05-27 07:05:00,
2017-05-27 02:10:00,53.6,52.5,29.85,South,174,2.0,2.0,96,0.00,,,0.00,VWS V15.00,2017-05-27 07:10:00,
2017-05-27 02:15:00,53.5,52.4,29.85,South,175,3.0,6.0,96,0.00,,,0.00,VWS V15.00,2017-05-27 07:15:00,
2017-05-27 02:20:00,53.5,52.4,29.85,South,174,1.0,3.0,96,0.00,,,0.00,VWS V15.00,2017-05-27 07:20:00,
2017-05-27 02:25:00,53.5,52.4,29.85,South,179,1.0,6.0,96,0.00,,,0.00,VWS V15.00,2017-05-27 07:25:00,
2017-05-27 02:30:00,53.6,52.5,29.85,South,175,2.0,5.0,96,0.00,,,0.00,VWS V15.00,2017-05-27 07:30:00,
2017-05-27 02:35:00,53.5,52.4,29.84,South,183,4.0,6.0,96,0.00,,,0.00,VWS V15.00,2017-05-27 07:35:00,
2017-05-27 02:40:00,53.6,52.5,29.85,South,184,0.0,2.0,96,0.00,,,0.00,VWS V15.00,2017-05-27 07:40:00,
2017-05-27 02:45:00,53.5,52.4,29.85,South,184,0.0,3.0,96,0.00,,,0.00,VWS V15.00,2017-05-27 07:45:00,
2017-05-27 02:50:00,53.5,52.4,29.85,South,184,0.0,0.0,96,0.00,,,0.00,VWS V15.00,2017-05-27 07:50:00,
2017-05-27 02:55:00,53.3,52.2,29.85,South,184,2.0,2.0,96,0.00,,,0.00,VWS V15.00,2017-05-27 07:55:00,
2017-05-27 03:00:00,53.1,52.0,29.85,South,184,1.0,2.0,96,0.00,,,0.00,VWS V15.00,2017-05-27 08:00:00,
2017-05-27 03:05:00,52.9,51.8,29.85,South,184,3.0,4.0,96,0.00,,,0.00,VWS V15.00,2017-05-27 08:05:00,
2017-05-27 03:10:00,52.8,51.7,29.85,South,184,4.0,4.0,96,0.00,,,0.00,VWS V15.00,2017-05-27 08:10:00,
2017-05-27 03:15:00,52.8,51.7,29.85,South,183,2.0,4.0,96,0.00,,,0.00,VWS V15.00,2017-05-27 08:15:00,
2017-05-27 03:20:00,52.8,51.7,29.85,South,183,2.0,4.0,96,0.00,,,0.00,VWS V15.00,2017-05-27 08:20:00,
2017-05-27 03:25:00,52.8,51.7,29.85,South,183,4.0,4.0,96,0.00,,,0.00,VWS V15.00,2017-05-27 08:25:00,
2017-05-27 03:30:00,52.8,51.7,29.85,South,183,1.0,2.0,96,0.00,,,0.00,VWS V15.00,2017-05-27 08:30:00,
2017-05-27 03:35:00,52.9,51.8,29.85,South,183,0.0,4.0,96,0.00,,,0.00,VWS V15.00,2017-05-27 08:35:00,
2017-05-27 03:40:00,52.9,52.1,29.85,South,183,0.0,0.0,97,0.00,,,0.00,VWS V15.00,2017-05-27 08:40:00,
2017-05-27 03:45:00,52.8,52.0,29.86,South,183,0.0,0.0,97,0.00,,,0.00,VWS V15.00,2017-05-27 08:45:00,
2017-05-27 03:50:00,52.7,51.6,29.86,South,183,0.0,0.0,96,0.00,,,0.00,VWS V15.00,2017-05-27 08:50:00,
2017-05-27 03:55:00,52.7,51.6,29.86,South,183,0.0,0.0,96,0.00,,,0.00,VWS V15.00,2017-05-27 08:55:00,
2017-05-27 04:00:00,52.7,51.6,29.85,South,183,1.0,2.0,96,0.00,,,0.00,VWS V15.00,2017-05-27 09:00:00,
2017-05-27 04:05:00,52.7,51.9,29.86,South,183,2.0,3.0,97,0.00,,,0.00,VWS V15.00,2017-05-27 09:05:00,
2017-05-27 04:10:00,52.8,52.0,29.86,South,183,0.0,2.0,97,0.00,,,0.00,VWS V15.00,2017-05-27 09:10:00,
2017-05-27 04:15:00,52.8,52.0,29.86,South,183,1.0,3.0,97,0.00,,,0.00,VWS V15.00,2017-05-27 09:15:00,
2017-05-27 04:20:00,52.8,52.0,29.86,South,183,0.0,1.0,97,0.00,,,0.00,VWS V15.00,2017-05-27 09:20:00,
2017-05-27 04:25:00,52.6,51.5,29.87,South,183,0.0,1.0,96,0.00,,,0.00,VWS V15.00,2017-05-27 09:25:00,
2017-05-27 04:30:00,52.1,50.7,29.86,South,183,0.0,0.0,95,0.00,,,0.00,VWS V15.00,2017-05-27 09:30:00,
2017-05-27 04:31:00,52.1,50.7,29.86,South,183,0.0,0.0,95,0.00,,,0.00,VWS V15.00,2017-05-27 09:31:00,
2017-05-27 04:36:00,51.7,50.3,29.86,South,183,0.0,1.0,95,0.00,,,0.00,VWS V15.00,2017-05-27 09:36:00,
2017-05-27 04:41:00,51.2,49.8,29.86,South,183,0.0,0.0,95,0.00,,,0.00,VWS V15.00,2017-05-27 09:41:00,
2017-05-27 04:46:00,50.9,49.5,29.86,South,183,0.0,0.0,95,0.00,,,0.00,VWS V15.00,2017-05-27 09:46:00,
2017-05-27 04:51:00,51.0,49.9,29.86,South,183,0.0,0.0,96,0.00,,,0.00,VWS V15.00,2017-05-27 09:51:00,
2017-05-27 04:56:00,51.1,50.0,29.87,South,183,0.0,0.0,96,0.00,,,0.00,VWS V15.00,2017-05-27 09:56:00,
2017-05-27 05:01:00,51.0,49.9,29.87,South,183,0.0,0.0,96,0.00,,,0.00,VWS V15.00,2017-05-27 10:01:00,
2017-05-27 05:06:00,50.7,49.3,29.88,South,183,0.0,0.0,95,0.00,,,0.00,VWS V15.00,2017-05-27 10:06:00,
2017-05-27 05:10:00,50.2,48.8,29.88,South,183,0.0,0.0,95,0.00,,,0.00,VWS V15.00,2017-05-27 10:10:00,
2017-05-27 05:16:00,49.8,48.2,29.88,South,183,0.0,0.0,94,0.00,,,0.00,VWS V15.00,2017-05-27 10:16:00,
2017-05-27 05:21:00,49.4,48.0,29.88,South,183,0.0,0.0,95,0.00,,,0.00,VWS V15.00,2017-05-27 10:21:00,
2017-05-27 05:25:00,49.1,47.7,29.88,South,183,0.0,0.0,95,0.00,,,0.00,VWS V15.00,2017-05-27 10:25:00,
2017-05-27 05:30:00,48.8,47.4,29.88,South,183,0.0,0.0,95,0.00,,,0.00,VWS V15.00,2017-05-27 10:30:00,
2017-05-27 05:35:00,48.7,47.3,29.89,South,183,0.0,0.0,95,0.00,,,0.00,VWS V15.00,2017-05-27 10:35:00,
2017-05-27 05:40:00,48.6,47.2,29.89,South,183,0.0,0.0,95,0.00,,,0.00,VWS V15.00,2017-05-27 10:40:00,
2017-05-27 05:45:00,48.7,47.6,29.89,South,183,0.0,0.0,96,0.00,,,0.00,VWS V15.00,2017-05-27 10:45:00,
2017-05-27 05:50:00,48.6,47.5,29.89,South,183,0.0,0.0,96,0.00,,,0.00,VWS V15.00,2017-05-27 10:50:00,
2017-05-27 05:55:00,48.3,47.2,29.89,South,183,0.0,0.0,96,0.00,,,0.00,VWS V15.00,2017-05-27 10:55:00,
2017-05-27 06:00:00,48.3,47.2,29.90,South,183,0.0,0.0,96,0.00,,,0.00,VWS V15.00,2017-05-27 11:00:00,
2017-05-27 06:05:00,48.3,47.2,29.90,South,183,0.0,0.0,96,0.00,,,0.00,VWS V15.00,2017-05-27 11:05:00,
2017-05-27 06:10:00,48.4,47.6,29.90,South,183,0.0,0.0,97,0.01,,,0.01,VWS V15.00,2017-05-27 11:10:00,
2017-05-27 06:15:00,48.7,47.9,29.90,South,183,2.0,2.0,97,0.01,,,0.01,VWS V15.00,2017-05-27 11:15:00,
2017-05-27 06:20:00,48.9,48.1,29.90,South,183,1.0,2.0,97,0.01,,,0.01,VWS V15.00,2017-05-27 11:20:00,
2017-05-27 06:25:00,49.1,48.3,29.90,South,183,0.0,2.0,97,0.01,,,0.01,VWS V15.00,2017-05-27 11:25:00,
2017-05-27 06:30:00,49.4,48.6,29.89,South,183,0.0,0.0,97,0.01,,,0.01,VWS V15.00,2017-05-27 11:30:00,
2017-05-27 06:35:00,49.7,48.9,29.89,South,183,0.0,0.0,97,0.01,,,0.01,VWS V15.00,2017-05-27 11:35:00,
2017-05-27 06:40:00,50.0,49.5,29.89,South,183,0.0,0.0,98,0.01,,,0.01,VWS V15.00,2017-05-27 11:40:00,
2017-05-27 06:45:00,50.4,49.9,29.89,South,183,2.0,3.0,98,0.01,,,0.01,VWS V15.00,2017-05-27 11:45:00,
2017-05-27 06:50:00,50.6,50.1,29.89,South,183,1.0,3.0,98,0.01,,,0.01,VWS V15.00,2017-05-27 11:50:00,
2017-05-27 06:55:00,50.9,50.4,29.89,South,183,1.0,4.0,98,0.01,,,0.01,VWS V15.00,2017-05-27 11:55:00,
2017-05-27 07:00:00,51.3,50.8,29.89,South,183,2.0,3.0,98,0.01,,,0.01,VWS V15.00,2017-05-27 12:00:00,
2017-05-27 07:05:00,51.5,51.0,29.89,South,183,2.0,4.0,98,0.01,,,0.01,VWS V15.00,2017-05-27 12:05:00,
2017-05-27 07:10:00,51.8,51.3,29.88,South,183,2.0,3.0,98,0.00,,,0.01,VWS V15.00,2017-05-27 12:10:00,
2017-05-27 07:15:00,52.2,51.7,29.88,South,183,3.0,4.0,98,0.00,,,0.01,VWS V15.00,2017-05-27 12:15:00,
2017-05-27 07:20:00,52.5,52.0,29.88,South,183,0.0,0.0,98,0.00,,,0.01,VWS V15.00,2017-05-27 12:20:00,
2017-05-27 07:25:00,52.8,52.2,29.88,South,183,2.0,2.0,98,0.00,,,0.01,VWS V15.00,2017-05-27 12:25:00,
2017-05-27 07:30:00,53.2,52.7,29.88,South,183,0.0,3.0,98,0.00,,,0.01,VWS V15.00,2017-05-27 12:30:00,
2017-05-27 07:31:00,53.2,52.7,29.88,South,183,2.0,3.0,98,0.00,,,0.01,VWS V15.00,2017-05-27 12:31:00,
2017-05-27 07:36:00,53.5,53.0,29.88,South,183,2.0,3.0,98,0.00,,,0.01,VWS V15.00,2017-05-27 12:36:00,
2017-05-27 07:41:00,53.9,53.3,29.88,South,183,3.0,3.0,98,0.00,,,0.01,VWS V15.00,2017-05-27 12:41:00,
2017-05-27 07:46:00,54.2,53.7,29.88,South,183,0.0,3.0,98,0.00,,,0.01,VWS V15.00,2017-05-27 12:46:00,
2017-05-27 07:51:00,54.5,54.0,29.88,South,183,0.0,0.0,98,0.00,,,0.01,VWS V15.00,2017-05-27 12:51:00,
2017-05-27 07:56:00,54.8,54.2,29.88,South,183,0.0,0.0,98,0.00,,,0.01,VWS V15.00,2017-05-27 12:56:00,
2017-05-27 08:01:00,55.2,54.7,29.88,South,183,0.0,0.0,98,0.00,,,0.01,VWS V15.00,2017-05-27 13:01:00,
2017-05-27 08:06:00,55.5,55.0,29.88,South,183,0.0,0.0,98,0.00,,,0.01,VWS V15.00,2017-05-27 13:06:00,
2017-05-27 08:11:00,55.9,55.3,29.88,South,183,0.0,0.0,98,0.00,,,0.01,VWS V15.00,2017-05-27 13:11:00,
2017-05-27 08:16:00,56.2,55.7,29.88,South,183,1.0,3.0,98,0.00,,,0.01,VWS V15.00,2017-05-27 13:16:00,
2017-05-27 08:21:00,56.5,55.9,29.88,South,183,0.0,0.0,98,0.00,,,0.01,VWS V15.00,2017-05-27 13:21:00,
2017-05-27 08:26:00,56.8,56.5,29.88,South,183,0.0,0.0,99,0.00,,,0.01,VWS V15.00,2017-05-27 13:26:00,
2017-05-27 08:31:00,57.2,56.6,29.88,South,183,0.0,3.0,98,0.00,,,0.01,VWS V15.00,2017-05-27 13:31:00,
2017-05-27 08:36:00,57.6,57.0,29.88,South,183,2.0,3.0,98,0.00,,,0.01,VWS V15.00,2017-05-27 13:36:00,
2017-05-27 08:41:00,57.8,57.2,29.88,South,183,0.0,2.0,98,0.00,,,0.01,VWS V15.00,2017-05-27 13:41:00,
2017-05-27 08:46:00,58.1,57.8,29.88,South,183,1.0,2.0,99,0.00,,,0.01,VWS V15.00,2017-05-27 13:46:00,
2017-05-27 08:51:00,58.6,58.3,29.88,South,183,0.0,2.0,99,0.00,,,0.01,VWS V15.00,2017-05-27 13:51:00,
2017-05-27 08:56:00,58.9,58.6,29.88,South,183,0.0,3.0,99,0.00,,,0.01,VWS V15.00,2017-05-27 13:56:00,
2017-05-27 09:01:00,59.2,58.9,29.88,South,183,2.0,3.0,99,0.00,,,0.01,VWS V15.00,2017-05-27 14:01:00,
2017-05-27 09:06:00,59.6,59.0,29.88,South,183,0.0,3.0,98,0.00,,,0.01,VWS V15.00,2017-05-27 14:06:00,
2017-05-27 09:11:00,60.2,59.6,29.89,South,183,3.0,3.0,98,0.00,,,0.01,VWS V15.00,2017-05-27 14:11:00,
2017-05-27 09:16:00,60.7,59.6,29.89,South,183,0.0,3.0,96,0.00,,,0.01,VWS V15.00,2017-05-27 14:16:00,
2017-05-27 09:21:00,61.2,59.8,29.89,South,183,2.0,4.0,95,0.00,,,0.01,VWS V15.00,2017-05-27 14:21:00,
2017-05-27 09:26:00,61.8,59.8,29.89,West,266,7.0,7.0,93,0.00,,,0.01,VWS V15.00,2017-05-27 14:26:00,
2017-05-27 09:31:00,62.2,59.2,29.89,West,271,0.0,0.0,90,0.00,,,0.01,VWS V15.00,2017-05-27 14:31:00,
2017-05-27 09:36:00,62.5,59.8,29.89,West,269,0.0,6.0,91,0.00,,BKN250,0.01,VWS V15.00,2017-05-27 14:36:00,
2017-05-27 09:41:00,62.9,60.2,29.89,West,260,2.0,4.0,91,0.00,,BKN250,0.01,VWS V15.00,2017-05-27 14:41:00,
2017-05-27 09:46:00,63.4,60.1,29.89,WSW,246,0.0,7.0,89,0.00,,BKN250,0.01,VWS V15.00,2017-05-27 14:46:00,
2017-05-27 09:51:00,63.9,60.3,29.89,WSW,244,0.0,3.0,88,0.00,,BKN250,0.01,VWS V15.00,2017-05-27 14:51:00,
2017-05-27 09:56:00,64.3,60.7,29.88,WSW,244,1.0,4.0,88,0.00,,BKN250,0.01,VWS V15.00,2017-05-27 14:56:00,
2017-05-27 10:01:00,64.7,60.4,29.89,WSW,244,0.0,0.0,86,0.00,,BKN250,0.01,VWS V15.00,2017-05-27 15:01:00,
2017-05-27 10:06:00,65.0,60.7,29.89,WSW,240,3.0,4.0,86,0.00,,BKN250,0.01,VWS V15.00,2017-05-27 15:06:00,
2017-05-27 10:11:00,65.4,60.8,29.89,WSW,239,0.0,0.0,85,0.00,,BKN250,0.01,VWS V15.00,2017-05-27 15:11:00,
2017-05-27 10:16:00,65.7,60.7,29.89,WSW,246,0.0,7.0,84,0.00,,BKN250,0.01,VWS V15.00,2017-05-27 15:16:00,
2017-05-27 10:21:00,65.7,60.1,29.89,WSW,240,0.0,0.0,82,0.00,,BKN250,0.01,VWS V15.00,2017-05-27 15:21:00,
2017-05-27 10:26:00,66.0,60.7,29.89,WSW,240,4.0,4.0,83,0.00,,BKN250,0.01,VWS V15.00,2017-05-27 15:26:00,
2017-05-27 10:29:00,66.2,61.2,29.89,WSW,240,0.0,4.0,84,0.00,,BKN250,0.01,VWS V15.00,2017-05-27 15:29:00,
2017-05-27 10:34:00,66.6,61.6,29.89,SW,224,3.0,4.0,84,0.00,,BKN250,0.01,VWS V15.00,2017-05-27 15:34:00,
2017-05-27 10:39:00,66.6,61.3,29.90,SW,220,3.0,6.0,83,0.00,,FEW250,0.01,VWS V15.00,2017-05-27 15:39:00,
2017-05-27 10:44:00,66.6,60.9,29.90,West,259,8.0,8.0,82,0.01,,FEW250,0.02,VWS V15.00,2017-05-27 15:44:00,
2017-05-27 10:49:00,66.4,61.1,29.90,West,261,0.0,8.0,83,0.01,,FEW250,0.02,VWS V15.00,2017-05-27 15:49:00,
2017-05-27 10:54:00,66.3,60.7,29.90,West,261,0.0,1.0,82,0.01,,FEW250,0.02,VWS V15.00,2017-05-27 15:54:00,
2017-05-27 10:59:00,66.2,60.9,29.90,WSW,240,2.0,5.0,83,0.01,,FEW250,0.02,VWS V15.00,2017-05-27 15:59:00,
2017-05-27 11:04:00,66.1,61.1,29.90,WSW,240,2.0,4.0,84,0.01,,FEW250,0.02,VWS V15.00,2017-05-27 16:04:00,
2017-05-27 11:09:00,66.2,61.2,29.90,SW,236,3.0,5.0,84,0.01,,FEW250,0.02,VWS V15.00,2017-05-27 16:09:00,
2017-05-27 11:14:00,66.2,60.5,29.90,SW,235,2.0,3.0,82,0.01,,FEW250,0.02,VWS V15.00,2017-05-27 16:14:00,
2017-05-27 11:19:00,66.2,60.5,29.90,SW,236,3.0,6.0,82,0.01,,FEW250,0.02,VWS V15.00,2017-05-27 16:19:00,
2017-05-27 11:24:00,66.1,60.8,29.90,SW,234,0.0,3.0,83,0.01,,FEW250,0.02,VWS V15.00,2017-05-27 16:24:00,
2017-05-27 11:29:00,66.0,60.7,29.90,SW,227,4.0,4.0,83,0.01,,FEW250,0.02,VWS V15.00,2017-05-27 16:29:00,
2017-05-27 11:34:00,66.0,60.7,29.90,WSW,246,3.0,8.0,83,0.01,,FEW250,0.02,VWS V15.00,2017-05-27 16:34:00,
2017-05-27 11:39:00,66.0,61.0,29.90,SW,234,1.0,8.0,84,0.01,,FEW250,0.02,VWS V15.00,2017-05-27 16:39:00,
2017-05-27 11:44:00,66.1,60.8,29.90,SSW,205,0.0,6.0,83,0.01,,FEW250,0.02,VWS V15.00,2017-05-27 16:44:00,
2017-05-27 11:49:00,66.1,60.5,29.90,SW,224,2.0,6.0,82,0.01,,FEW250,0.02,VWS V15.00,2017-05-27 16:49:00,
2017-05-27 11:54:00,66.3,61.0,29.90,West,266,8.0,8.0,83,0.00,,FEW250,0.02,VWS V15.00,2017-05-27 16:54:00,
2017-05-27 11:59:00,66.6,61.6,29.90,SW,231,3.0,8.0,84,0.00,,FEW250,0.02,VWS V15.00,2017-05-27 16:59:00,
2017-05-27 12:04:00,67.2,61.5,29.90,SSW,205,0.0,6.0,82,0.00,,FEW250,0.02,VWS V15.00,2017-05-27 17:04:00,
2017-05-27 12:09:00,67.7,61.7,29.90,WSW,247,5.0,7.0,81,0.00,,FEW250,0.02,VWS V15.00,2017-05-27 17:09:00,
2017-05-27 12:14:00,67.9,61.5,29.90,West,271,6.0,7.0,80,0.00,,FEW250,0.02,VWS V15.00,2017-05-27 17:14:00,
2017-05-27 12:19:00,68.0,61.2,29.90,WSW,254,2.0,8.0,79,0.00,,FEW250,0.02,VWS V15.00,2017-05-27 17:19:00,
2017-05-27 12:24:00,68.1,62.1,29.90,WSW,256,2.0,5.0,81,0.00,,FEW250,0.02,VWS V15.00,2017-05-27 17:24:00,
2017-05-27 12:29:00,68.3,62.6,29.90,WSW,252,4.0,5.0,82,0.00,,FEW250,0.02,VWS V15.00,2017-05-27 17:29:00,
2017-05-27 12:34:00,68.8,62.4,29.90,WSW,249,1.0,4.0,80,0.00,,FEW250,0.02,VWS V15.00,2017-05-27 17:34:00,
2017-05-27 12:39:00,69.2,61.7,29.90,West,270,2.0,7.0,77,0.00,,BKN250,0.02,VWS V15.00,2017-05-27 17:39:00,
2017-05-27 12:44:00,69.5,62.7,29.90,WSW,246,0.0,8.0,79,0.00,,BKN250,0.02,VWS V15.00,2017-05-27 17:44:00,
2017-05-27 12:49:00,69.6,62.4,29.90,West,271,1.0,10.0,78,0.00,,BKN250,0.02,VWS V15.00,2017-05-27 17:49:00,
2017-05-27 12:54:00,69.8,62.6,29.90,SW,236,5.0,6.0,78,0.00,,BKN250,0.02,VWS V15.00,2017-05-27 17:54:00,
2017-05-27 12:59:00,70.3,63.5,29.89,SW,223,3.0,6.0,79,0.00,,BKN250,0.02,VWS V15.00,2017-05-27 17:59:00,
2017-05-27 13:04:00,70.6,63.0,29.89,SSE,163,6.0,8.0,77,0.00,,BKN250,0.02,VWS V15.00,2017-05-27 18:04:00,
2017-05-27 13:09:00,71.2,62.9,29.89,SSW,212,4.0,8.0,75,0.00,,BKN250,0.02,VWS V15.00,2017-05-27 18:09:00,
2017-05-27 13:14:00,71.7,63.0,29.89,SW,221,1.0,4.0,74,0.00,,BKN250,0.02,VWS V15.00,2017-05-27 18:14:00,
2017-05-27 13:19:00,72.0,63.3,29.89,SW,223,0.0,4.0,74,0.00,,BKN250,0.02,VWS V15.00,2017-05-27 18:19:00,
2017-05-27 13:24:00,72.0,63.3,29.88,South,183,5.0,5.0,74,0.00,,BKN250,0.02,VWS V15.00,2017-05-27 18:24:00,
2017-05-27 13:29:00,72.2,63.1,29.88,South,188,0.0,5.0,73,0.00,,BKN250,0.02,VWS V15.00,2017-05-27 18:29:00,
2017-05-27 13:34:00,72.3,62.8,29.88,West,276,4.0,8.0,72,0.00,,BKN250,0.02,VWS V15.00,2017-05-27 18:34:00,
2017-05-27 13:39:00,72.4,63.3,29.88,West,274,0.0,8.0,73,0.00,,BKN250,0.02,VWS V15.00,2017-05-27 18:39:00,
2017-05-27 13:44:00,72.5,63.0,29.88,South,179,2.0,10.0,72,0.00,,BKN250,0.02,VWS V15.00,2017-05-27 18:44:00,
2017-05-27 13:49:00,72.7,63.5,29.88,West,277,0.0,10.0,73,0.00,,BKN250,0.02,VWS V15.00,2017-05-27 18:49:00,
2017-05-27 13:54:00,72.8,62.9,29.88,SW,235,7.0,7.0,71,0.00,,BKN250,0.02,VWS V15.00,2017-05-27 18:54:00,
2017-05-27 13:59:00,72.7,62.8,29.88,SW,235,3.0,7.0,71,0.00,,BKN250,0.02,VWS V15.00,2017-05-27 18:59:00,
2017-05-27 14:04:00,72.5,63.0,29.88,SW,214,0.0,5.0,72,0.00,,BKN250,0.02,VWS V15.00,2017-05-27 19:04:00,
2017-05-27 14:09:00,72.4,63.3,29.88,SW,214,3.0,5.0,73,0.00,,BKN250,0.02,VWS V15.00,2017-05-27 19:09:00,
2017-05-27 14:14:00,72.2,61.9,29.88,WSW,245,4.0,5.0,70,0.00,,BKN250,0.02,VWS V15.00,2017-05-27 19:14:00,
2017-05-27 14:19:00,72.1,62.6,29.87,West,259,4.0,10.0,72,0.00,,BKN250,0.02,VWS V15.00,2017-05-27 19:19:00,
2017-05-27 14:24:00,71.9,62.0,29.87,West,260,3.0,7.0,71,0.00,,BKN250,0.02,VWS V15.00,2017-05-27 19:24:00,
2017-05-27 14:29:00,71.7,63.4,29.87,WSW,252,2.0,7.0,75,0.00,,BKN250,0.02,VWS V15.00,2017-05-27 19:29:00,
2017-05-27 14:34:00,71.5,62.8,29.88,West,267,0.0,4.0,74,0.00,,BKN250,0.02,VWS V15.00,2017-05-27 19:34:00,
2017-05-27 14:39:00,71.3,62.2,29.88,SW,228,3.0,8.0,73,0.00,,BKN250,0.02,VWS V15.00,2017-05-27 19:39:00,
2017-05-27 14:44:00,71.2,62.1,29.87,SW,217,0.0,5.0,73,0.01,,BKN250,0.03,VWS V15.00,2017-05-27 19:44:00,
2017-05-27 14:49:00,71.2,62.5,29.87,SW,217,1.0,5.0,74,0.01,,BKN250,0.03,VWS V15.00,2017-05-27 19:49:00,
2017-05-27 14:54:00,71.2,62.1,29.86,WNW,288,2.0,8.0,73,0.01,,BKN250,0.03,VWS V15.00,2017-05-27 19:54:00,
2017-05-27 15:04:00,71.0,61.9,29.86,WNW,286,0.0,1.0,73,0.01,,BKN250,0.03,VWS V15.00,2017-05-27 20:04:00,
2017-05-27 15:09:00,70.8,62.5,29.85,WNW,289,0.0,3.0,75,0.01,,BKN250,0.03,VWS V15.00,2017-05-27 20:09:00,
2017-05-27 15:14:00,70.6,61.9,29.85,NW,304,3.0,5.0,74,0.01,,BKN250,0.03,VWS V15.00,2017-05-27 20:14:00,
2017-05-27 15:19:00,70.5,61.8,29.85,West,261,4.0,7.0,74,0.01,,BKN250,0.03,VWS V15.00,2017-05-27 20:19:00,
2017-05-27 15:24:00,70.6,61.5,29.85,West,265,3.0,7.0,73,0.01,,BKN250,0.03,VWS V15.00,2017-05-27 20:24:00,
2017-05-27 15:29:00,70.9,62.6,29.84,West,270,4.0,8.0,75,0.01,,BKN250,0.03,VWS V15.00,2017-05-27 20:29:00,
2017-05-27 15:34:00,71.2,62.5,29.84,West,281,2.0,8.0,74,0.01,,BKN250,0.03,VWS V15.00,2017-05-27 20:34:00,
2017-05-27 15:44:00,71.5,61.6,29.84,West,281,3.0,9.0,71,0.00,,BKN250,0.03,VWS V15.00,2017-05-27 20:44:00,
2017-05-27 15:49:00,71.6,61.7,29.83,West,274,2.0,9.0,71,0.00,,BKN250,0.03,VWS V15.00,2017-05-27 20:49:00,
2017-05-27 15:54:00,71.5,62.0,29.83,West,271,0.0,6.0,72,0.00,,BKN250,0.03,VWS V15.00,2017-05-27 20:54:00,
2017-05-27 15:59:00,71.4,62.3,29.83,West,277,2.0,6.0,73,0.00,,BKN250,0.03,VWS V15.00,2017-05-27 20:59:00,
2017-05-27 16:04:00,71.2,62.1,29.84,West,277,4.0,4.0,73,0.00,,BKN250,0.03,VWS V15.00,2017-05-27 21:04:00,
2017-05-27 16:09:00,71.1,60.4,29.83,West,277,3.0,7.0,69,0.00,,BKN250,0.03,VWS V15.00,2017-05-27 21:09:00,
2017-05-27 16:14:00,71.2,60.9,29.83,West,281,0.0,7.0,70,0.00,,BKN250,0.03,VWS V15.00,2017-05-27 21:14:00,
2017-05-27 16:19:00,71.4,61.1,29.82,NW,310,0.0,7.0,70,0.00,,BKN250,0.03,VWS V15.00,2017-05-27 21:19:00,
2017-05-27 16:24:00,71.4,61.1,29.82,NW,310,2.0,2.0,70,0.00,,BKN250,0.03,VWS V15.00,2017-05-27 21:24:00,
2017-05-27 16:29:00,71.5,62.0,29.81,NW,307,3.0,3.0,72,0.00,,BKN250,0.03,VWS V15.00,2017-05-27 21:29:00,
2017-05-27 16:34:00,71.5,60.4,29.81,NW,311,0.0,4.0,68,0.00,,BKN250,0.03,VWS V15.00,2017-05-27 21:34:00,
2017-05-27 16:39:00,71.5,58.7,29.82,NW,311,0.0,4.0,64,0.00,,BKN250,0.03,VWS V15.00,2017-05-27 21:39:00,
2017-05-27 16:44:00,71.6,58.8,29.83,NW,305,1.0,3.0,64,0.00,,BKN250,0.03,VWS V15.00,2017-05-27 21:44:00,
2017-05-27 16:49:00,71.9,59.5,29.84,WNW,295,1.0,3.0,65,0.00,,BKN250,0.03,VWS V15.00,2017-05-27 21:49:00,
2017-05-27 16:54:00,72.1,59.7,29.85,West,275,4.0,6.0,65,0.00,,BKN250,0.03,VWS V15.00,2017-05-27 21:54:00,
2017-05-27 16:59:00,72.3,59.9,29.84,West,276,0.0,6.0,65,0.00,,BKN250,0.03,VWS V15.00,2017-05-27 21:59:00,
2017-05-27 17:04:00,72.3,59.9,29.84,West,276,2.0,3.0,65,0.00,,BKN250,0.03,VWS V15.00,2017-05-27 22:04:00,
2017-05-27 17:09:00,72.3,58.1,29.82,West,276,2.0,3.0,61,0.00,,BKN250,0.03,VWS V15.00,2017-05-27 22:09:00,
2017-05-27 17:14:00,72.3,58.1,29.82,West,276,0.0,3.0,61,0.00,,BKN250,0.03,VWS V15.00,2017-05-27 22:14:00,
2017-05-27 17:19:00,72.4,56.8,29.82,WNW,284,0.0,3.0,58,0.00,,BKN250,0.03,VWS V15.00,2017-05-27 22:19:00,
2017-05-27 17:24:00,72.4,57.3,29.82,North,350,4.0,5.0,59,0.00,,BKN250,0.03,VWS V15.00,2017-05-27 22:24:00,
2017-05-27 17:29:00,72.4,56.8,29.82,North,351,2.0,5.0,58,0.00,,BKN250,0.03,VWS V15.00,2017-05-27 22:29:00,
2017-05-27 17:34:00,72.3,57.2,29.82,North,351,1.0,2.0,59,0.00,,BKN250,0.03,VWS V15.00,2017-05-27 22:34:00,
2017-05-27 17:39:00,72.3,56.7,29.83,North,351,0.0,2.0,58,0.00,,BKN250,0.03,VWS V15.00,2017-05-27 22:39:00,
2017-05-27 17:44:00,72.3,56.2,29.83,North,351,0.0,2.0,57,0.00,,BKN250,0.03,VWS V15.00,2017-05-27 22:44:00,
2017-05-27 17:49:00,72.2,56.1,29.83,North,351,0.0,2.0,57,0.00,,BKN250,0.03,VWS V15.00,2017-05-27 22:49:00,